Terminal Aerodrome Forecast
Issued by NWS Lubbock, TX

Home | Current Version | Previous Version | Text Only | Print | Product List | Glossary On
Versions: 1 2 3 4 5 6 7 8 9 10 11 12 13 14 15 16 17
170
FTUS44 KLUB 111120
TAFLBB
TAF
KLBB 111120Z 1112/1212 26015G25KT P6SM BKN250
     FM112300 34015KT P6SM BKN250
     FM120200 04006KT P6SM SCT250=

USA.gov is the U.S. government's official web portal to all federal, state and local government web resources and services.